createdAt,value
2022-12-31T00:01:32.688Z,15.20
2022-12-31T00:06:42.630Z,18.30
2022-12-31T00:11:50.950Z,17.90
2022-12-31T00:16:58.679Z,16.50
2022-12-31T00:22:06.134Z,17.30
2022-12-31T00:27:13.350Z,17.50
2022-12-31T00:32:20.542Z,17.80
2022-12-31T00:37:27.818Z,19.00
2022-12-31T00:42:35.223Z,18.10
2022-12-31T00:47:43.095Z,18.90
2022-12-31T00:52:50.375Z,21.00
2022-12-31T00:57:57.708Z,20.30
2022-12-31T01:03:05.258Z,20.00
2022-12-31T01:08:12.890Z,21.00
2022-12-31T01:13:20.167Z,20.60
2022-12-31T01:18:27.395Z,20.00
2022-12-31T01:23:34.766Z,19.70
2022-12-31T01:28:42.490Z,19.80
2022-12-31T01:33:50.775Z,16.70
2022-12-31T01:38:59.365Z,15.20
2022-12-31T01:44:43.729Z,16.10
2022-12-31T01:49:54.990Z,17.10
2022-12-31T01:55:10.053Z,14.80
2022-12-31T02:00:18.519Z,15.00
2022-12-31T02:05:33.059Z,14.20
2022-12-31T02:10:40.249Z,13.40
2022-12-31T02:15:58.746Z,12.80
2022-12-31T02:21:29.987Z,12.80
2022-12-31T02:26:55.374Z,11.30
2022-12-31T02:32:06.988Z,10.70
2022-12-31T02:37:15.903Z,9.60
2022-12-31T02:42:23.188Z,9.50
2022-12-31T02:47:44.759Z,9.00
2022-12-31T02:53:00.162Z,8.40
2022-12-31T02:58:16.060Z,9.50
2022-12-31T03:03:23.858Z,8.00
2022-12-31T03:08:31.658Z,7.80
2022-12-31T03:13:38.855Z,8.60
2022-12-31T03:18:59.864Z,6.90
2022-12-31T03:24:24.891Z,7.80
2022-12-31T03:29:32.675Z,8.90
2022-12-31T03:34:41.036Z,9.50
2022-12-31T03:39:48.417Z,8.80
2022-12-31T03:44:55.658Z,7.80
2022-12-31T03:50:02.908Z,8.20
2022-12-31T03:55:11.943Z,8.70
2022-12-31T04:00:22.806Z,8.10
2022-12-31T04:05:30.150Z,8.90
2022-12-31T04:10:37.464Z,7.40
2022-12-31T04:15:44.651Z,8.30
2022-12-31T04:20:52.006Z,7.50
2022-12-31T04:25:59.285Z,7.90
2022-12-31T04:31:06.679Z,7.10
2022-12-31T04:36:14.190Z,8.20
2022-12-31T04:41:22.689Z,7.00
2022-12-31T04:46:32.649Z,6.30
2022-12-31T04:51:40.320Z,6.20
2022-12-31T04:56:47.616Z,7.70
2022-12-31T05:01:55.507Z,6.70
2022-12-31T05:12:09.179Z,7.30
2022-12-31T05:17:16.461Z,5.60
2022-12-31T05:22:40.373Z,7.60
2022-12-31T05:27:48.147Z,5.70
2022-12-31T05:32:55.546Z,5.40
2022-12-31T05:38:04.443Z,5.90
2022-12-31T05:43:11.798Z,4.80
2022-12-31T05:48:19.030Z,5.10
2022-12-31T05:53:26.238Z,5.50
2022-12-31T05:58:33.553Z,3.80
2022-12-31T06:03:42.177Z,5.40
2022-12-31T06:08:53.982Z,4.50
2022-12-31T06:14:01.320Z,4.00
2022-12-31T06:19:10.336Z,5.10
2022-12-31T06:24:17.619Z,4.60
2022-12-31T06:29:24.854Z,4.80
2022-12-31T06:34:34.682Z,4.20
2022-12-31T06:39:42.182Z,4.00
2022-12-31T06:44:49.325Z,4.30
2022-12-31T06:49:56.605Z,4.10
2022-12-31T06:55:05.105Z,3.90
2022-12-31T07:00:14.808Z,4.60
2022-12-31T07:05:41.116Z,4.90
2022-12-31T07:10:57.376Z,5.80
2022-12-31T07:16:14.958Z,4.80
2022-12-31T07:21:31.459Z,5.60
2022-12-31T07:27:11.713Z,6.20
2022-12-31T07:32:32.239Z,5.50
2022-12-31T07:37:50.686Z,4.40
2022-12-31T07:43:10.082Z,4.70
2022-12-31T07:48:27.905Z,5.90
2022-12-31T07:53:36.119Z,6.40
2022-12-31T07:58:59.386Z,5.30
2022-12-31T08:04:15.456Z,4.90
2022-12-31T08:09:35.071Z,5.30
2022-12-31T08:14:48.280Z,5.20
2022-12-31T08:19:56.638Z,6.20
2022-12-31T08:25:15.574Z,4.60
2022-12-31T08:30:25.106Z,4.60
2022-12-31T08:35:44.435Z,2.70
2022-12-31T08:40:58.661Z,4.80
2022-12-31T08:46:14.420Z,4.40
2022-12-31T08:51:24.622Z,3.80
2022-12-31T08:56:35.164Z,4.50
2022-12-31T09:01:52.277Z,4.30
2022-12-31T09:07:03.672Z,3.70
2022-12-31T09:12:19.567Z,5.50
2022-12-31T09:17:46.752Z,4.50
2022-12-31T09:22:55.933Z,4.30
2022-12-31T09:28:15.815Z,4.30
2022-12-31T09:33:37.866Z,4.30
2022-12-31T09:38:52.756Z,4.10
2022-12-31T09:44:37.693Z,4.60
2022-12-31T09:50:13.890Z,4.10
2022-12-31T09:55:35.281Z,4.40
2022-12-31T10:00:52.612Z,4.10
2022-12-31T10:06:15.906Z,5.30
2022-12-31T10:11:35.146Z,4.70
2022-12-31T10:17:00.888Z,4.30
2022-12-31T10:22:24.642Z,4.20
2022-12-31T10:27:51.160Z,4.30
2022-12-31T10:33:16.704Z,4.60
2022-12-31T10:38:39.312Z,4.60
2022-12-31T10:44:12.225Z,4.80
2022-12-31T10:49:49.199Z,5.40
2022-12-31T10:55:34.847Z,5.50
2022-12-31T11:00:49.634Z,4.50
2022-12-31T11:06:48.715Z,5.00
2022-12-31T11:12:12.589Z,5.00
2022-12-31T11:17:32.622Z,5.10
2022-12-31T11:22:57.995Z,4.10
2022-12-31T11:28:36.258Z,3.80
2022-12-31T11:41:17.495Z,4.10
2022-12-31T11:47:02.531Z,3.80
2022-12-31T11:52:41.959Z,3.30
2022-12-31T11:57:52.004Z,3.20
2022-12-31T12:03:07.334Z,3.80
2022-12-31T12:08:20.750Z,3.20
2022-12-31T12:13:29.586Z,3.40
2022-12-31T12:18:42.016Z,2.80
2022-12-31T12:23:59.976Z,2.90
2022-12-31T12:29:18.451Z,4.00
2022-12-31T12:34:27.755Z,4.30
2022-12-31T12:39:36.144Z,2.70
2022-12-31T12:44:43.528Z,3.80
2022-12-31T12:49:55.266Z,4.20
2022-12-31T12:55:21.259Z,7.10
2022-12-31T13:00:34.153Z,4.10
2022-12-31T13:05:56.663Z,2.70
2022-12-31T13:11:19.044Z,3.50
2022-12-31T13:16:36.914Z,2.70
2022-12-31T13:21:51.434Z,2.60
2022-12-31T13:27:12.291Z,2.90
2022-12-31T13:32:26.899Z,2.70
2022-12-31T13:37:42.932Z,3.10
2022-12-31T13:42:57.684Z,2.50
2022-12-31T13:48:20.859Z,2.40
2022-12-31T13:53:36.759Z,3.00
2022-12-31T13:58:51.275Z,3.00
2022-12-31T14:04:06.305Z,2.20
2022-12-31T14:09:19.857Z,2.40
2022-12-31T14:14:42.322Z,3.20
2022-12-31T14:20:00.801Z,3.30
2022-12-31T14:25:22.998Z,3.60
2022-12-31T14:30:34.089Z,3.10
2022-12-31T14:35:53.625Z,3.20
2022-12-31T14:41:13.460Z,3.90
2022-12-31T14:46:31.230Z,4.20
2022-12-31T14:51:40.099Z,3.50
2022-12-31T14:56:48.036Z,3.30
2022-12-31T15:07:09.925Z,3.50
2022-12-31T15:12:34.463Z,3.50
2022-12-31T15:17:54.250Z,3.80
2022-12-31T15:23:02.081Z,3.30
2022-12-31T15:33:27.320Z,2.60
2022-12-31T15:38:38.035Z,3.80
2022-12-31T15:43:51.892Z,4.00
2022-12-31T15:49:07.841Z,4.90
2022-12-31T15:54:26.075Z,3.80
2022-12-31T15:59:35.752Z,4.30
2022-12-31T16:04:44.762Z,4.50
2022-12-31T16:09:55.160Z,4.60
2022-12-31T16:15:05.302Z,4.10
2022-12-31T16:20:27.562Z,4.20
2022-12-31T16:25:35.588Z,3.90
2022-12-31T16:30:45.865Z,4.30
2022-12-31T16:36:01.098Z,4.10
2022-12-31T16:41:19.599Z,4.10
2022-12-31T16:46:30.957Z,4.30
2022-12-31T16:51:41.999Z,4.10
2022-12-31T16:57:12.119Z,5.40
2022-12-31T17:02:24.499Z,4.40
2022-12-31T17:07:41.871Z,6.20
2022-12-31T17:13:27.096Z,6.30
2022-12-31T17:18:24.245Z,6.40
2022-12-31T17:23:36.225Z,6.10
2022-12-31T17:28:47.550Z,9.00
2022-12-31T17:34:03.156Z,7.20
2022-12-31T17:39:20.139Z,7.90
2022-12-31T17:44:29.981Z,6.50
2022-12-31T17:49:37.899Z,6.20
2022-12-31T17:54:45.361Z,6.50
2022-12-31T17:59:52.841Z,8.10
2022-12-31T18:05:00.176Z,8.30
2022-12-31T18:10:08.320Z,6.70
2022-12-31T18:15:18.279Z,5.60
2022-12-31T18:20:26.863Z,6.60
2022-12-31T18:25:34.225Z,6.10
2022-12-31T18:30:42.150Z,5.60
2022-12-31T18:41:19.965Z,5.10
2022-12-31T18:46:28.421Z,6.00
2022-12-31T18:51:35.906Z,6.00
2022-12-31T18:56:47.168Z,6.30
2022-12-31T19:01:56.830Z,4.90
2022-12-31T19:07:04.250Z,4.40
2022-12-31T19:12:15.124Z,8.50
2022-12-31T19:17:22.555Z,5.80
2022-12-31T19:22:29.909Z,5.10
2022-12-31T19:27:37.455Z,5.50
2022-12-31T19:32:44.741Z,3.60
2022-12-31T19:37:53.577Z,4.00
2022-12-31T19:43:00.888Z,4.00
2022-12-31T19:48:11.852Z,4.00
2022-12-31T19:53:22.308Z,4.00
2022-12-31T19:58:31.338Z,3.40
2022-12-31T20:04:36.313Z,4.30
2022-12-31T20:09:44.581Z,4.60
2022-12-31T20:14:53.107Z,4.60
2022-12-31T20:20:01.774Z,4.30
2022-12-31T20:25:11.189Z,4.00
2022-12-31T20:30:21.115Z,4.80
2022-12-31T20:35:29.854Z,4.60
2022-12-31T20:40:44.569Z,5.10
2022-12-31T20:45:54.756Z,4.40
2022-12-31T20:51:02.932Z,4.20
2022-12-31T20:56:11.611Z,5.50
2022-12-31T21:01:22.279Z,4.40
2022-12-31T21:06:31.704Z,4.80
2022-12-31T21:12:02.327Z,4.70
2022-12-31T21:17:31.727Z,4.20
2022-12-31T21:22:40.643Z,3.70
2022-12-31T21:27:48.716Z,3.60
2022-12-31T21:32:56.892Z,3.30
2022-12-31T21:38:05.814Z,3.60
2022-12-31T21:43:14.737Z,2.50
2022-12-31T21:48:23.650Z,3.20
2022-12-31T21:53:36.607Z,2.60
2022-12-31T21:58:47.258Z,2.90
2022-12-31T22:03:55.300Z,3.20
2022-12-31T22:09:03.670Z,4.80
2022-12-31T22:14:12.182Z,3.60
2022-12-31T22:19:20.570Z,2.60
2022-12-31T22:24:31.396Z,2.80
2022-12-31T22:29:39.619Z,3.00
2022-12-31T22:34:47.713Z,2.00
2022-12-31T22:39:56.013Z,3.20
2022-12-31T22:45:04.238Z,2.20
2022-12-31T22:50:12.756Z,2.40
2022-12-31T22:55:22.075Z,5.50
2022-12-31T23:07:05.582Z,16.40
2022-12-31T23:12:14.687Z,14.00
2022-12-31T23:17:42.731Z,18.00
2022-12-31T23:23:09.448Z,18.20
2022-12-31T23:28:21.436Z,15.70
2022-12-31T23:33:30.740Z,12.90
2022-12-31T23:38:41.719Z,11.70
2022-12-31T23:43:53.284Z,10.80
2022-12-31T23:49:05.677Z,8.70
2022-12-31T23:54:14.965Z,6.50
2022-12-31T23:59:22.312Z,6.70
